Time;durP1;ratioP1;P1;durP2;ratioP2;P2;SDS_P1;SDS_P2;PMS_P1;PMS_P2;Temp;Humidity;BMP_temperature;BMP_pressure;BME280_temperature;BME280_humidity;BME280_pressure;Samples;Min_cycle;Max_cycle;Signal;HPM_P1;HPM_P2
2021/06/24 00:01:30;;;;;;;17.25;4.70;;;;;;;;;;5034315;28;20025;-69
2021/06/24 00:03:57;;;;;;;21.70;5.32;;;;;;;;;;5034337;28;20478;-69
2021/06/24 00:06:23;;;;;;;18.67;5.05;;;;;;;;;;5032982;28;20036;-69
2021/06/24 00:08:49;;;;;;;20.60;5.28;;;;;;;;;;5034093;28;20061;-69
2021/06/24 00:11:15;;;;;;;23.98;5.82;;;;;;;;;;5034253;28;20038;-68
2021/06/24 00:13:42;;;;;;;21.40;5.13;;;;;;;;;;5034034;28;20396;-68
2021/06/24 00:16:08;;;;;;;24.15;6.15;;;;;;;;;;5033836;28;20029;-67
2021/06/24 00:18:34;;;;;;;22.20;5.75;;;;;;;;;;5033727;28;20075;-69
2021/06/24 00:21:00;;;;;;;18.70;5.45;;;;;;;;;;5033804;28;20484;-69
2021/06/24 00:23:26;;;;;;;19.98;5.30;;;;;;;;;;5033603;28;20038;-69
2021/06/24 00:25:52;;;;;;;19.77;5.30;;;;;;;;;;5032491;28;20048;-68
2021/06/24 00:28:19;;;;;;;19.27;5.03;;;;;;;;;;5033800;28;20053;-68
2021/06/24 00:30:48;;;;;;;26.45;5.78;;;;;;;;;;5033814;28;20071;-69
2021/06/24 00:33:15;;;;;;;23.67;5.47;;;;;;;;;;5033627;28;20399;-69
2021/06/24 00:35:41;;;;;;;25.33;5.22;;;;;;;;;;5033489;28;20747;-68
2021/06/24 00:38:08;;;;;;;31.67;6.68;;;;;;;;;;5033652;28;20029;-68
2021/06/24 00:40:36;;;;;;;23.40;6.00;;;;;;;;;;5033534;28;20033;-69
2021/06/24 00:43:03;;;;;;;17.70;5.30;;;;;;;;;;5033402;28;20021;-69
2021/06/24 00:45:29;;;;;;;22.73;5.30;;;;;;;;;;5033317;28;20021;-68
2021/06/24 00:47:55;;;;;;;25.35;6.72;;;;;;;;;;5033348;28;20029;-69
2021/06/24 00:50:21;;;;;;;23.52;5.78;;;;;;;;;;5032090;28;20109;-68
2021/06/24 00:52:47;;;;;;;27.10;6.22;;;;;;;;;;5033196;28;20456;-69
2021/06/24 00:55:13;;;;;;;18.40;6.05;;;;;;;;;;5032556;28;20127;-69
2021/06/24 00:57:40;;;;;;;25.40;6.70;;;;;;;;;;5033299;28;20025;-69
2021/06/24 01:00:07;;;;;;;22.40;6.40;;;;;;;;;;5033354;28;20040;-68
2021/06/24 01:02:33;;;;;;;30.05;6.47;;;;;;;;;;5031765;28;20036;-68
2021/06/24 01:05:00;;;;;;;23.35;6.45;;;;;;;;;;5031308;28;20025;-70
2021/06/24 01:07:26;;;;;;;20.17;6.20;;;;;;;;;;5033178;28;20362;-69
2021/06/24 01:09:52;;;;;;;27.52;6.63;;;;;;;;;;5032937;28;20021;-69
2021/06/24 01:12:20;;;;;;;25.15;6.15;;;;;;;;;;5031652;28;20489;-68
2021/06/24 01:14:48;;;;;;;25.80;6.68;;;;;;;;;;5033074;28;20022;-69
2021/06/24 01:17:14;;;;;;;28.27;6.30;;;;;;;;;;5031902;28;20103;-68
2021/06/24 01:19:40;;;;;;;26.13;6.30;;;;;;;;;;5033175;28;20017;-68
2021/06/24 01:22:07;;;;;;;22.70;5.93;;;;;;;;;;5032675;28;20061;-68
2021/06/24 01:24:34;;;;;;;23.83;6.22;;;;;;;;;;5032575;28;20037;-68
2021/06/24 01:27:00;;;;;;;29.23;5.93;;;;;;;;;;5032923;28;20104;-69
2021/06/24 01:29:26;;;;;;;28.77;6.57;;;;;;;;;;5032578;28;20509;-68
2021/06/24 01:31:52;;;;;;;25.27;6.57;;;;;;;;;;5032532;28;20025;-69
2021/06/24 01:34:18;;;;;;;23.30;6.38;;;;;;;;;;5032330;28;20036;-69
2021/06/24 01:36:45;;;;;;;28.35;6.00;;;;;;;;;;5032531;28;20045;-69
2021/06/24 01:39:11;;;;;;;28.45;6.47;;;;;;;;;;5032224;28;20354;-69
2021/06/24 01:41:38;;;;;;;28.05;6.88;;;;;;;;;;5032590;28;20484;-69
2021/06/24 01:44:04;;;;;;;23.63;6.32;;;;;;;;;;5032533;28;20508;-68
2021/06/24 01:46:30;;;;;;;20.58;5.95;;;;;;;;;;5032401;28;20107;-68
2021/06/24 01:48:56;;;;;;;25.13;6.82;;;;;;;;;;5032244;28;20032;-68
2021/06/24 01:51:23;;;;;;;29.50;6.13;;;;;;;;;;5032056;28;20032;-69
2021/06/24 01:53:49;;;;;;;29.63;6.55;;;;;;;;;;5031930;28;20022;-69
2021/06/24 01:56:16;;;;;;;24.95;6.45;;;;;;;;;;5032191;28;20045;-68
2021/06/24 01:58:42;;;;;;;22.27;6.18;;;;;;;;;;5032109;28;20032;-68
2021/06/24 02:01:08;;;;;;;29.55;6.90;;;;;;;;;;5032927;28;20083;-68
2021/06/24 02:03:35;;;;;;;27.05;6.93;;;;;;;;;;5033627;28;20157;-68
2021/06/24 02:06:02;;;;;;;26.02;7.10;;;;;;;;;;5031779;28;20032;-68
2021/06/24 02:08:29;;;;;;;22.48;6.18;;;;;;;;;;5032018;28;20045;-68
2021/06/24 02:10:56;;;;;;;27.83;6.32;;;;;;;;;;5031743;28;20112;-65
2021/06/24 02:13:23;;;;;;;27.00;6.97;;;;;;;;;;5032019;28;20067;-66
2021/06/24 05:35:46;;;;;;;32.70;8.63;;;;;;;;;;5069933;23;20353;-66
2021/06/24 05:38:13;;;;;;;28.70;8.70;;;;;;;;;;4933915;29;20083;-67
2021/06/24 05:40:40;;;;;;;30.20;8.45;;;;;;;;;;4933231;29;20038;-67
2021/06/24 05:43:06;;;;;;;35.22;8.65;;;;;;;;;;4917413;29;20116;-67
2021/06/24 05:45:32;;;;;;;34.03;8.25;;;;;;;;;;4934284;29;20027;-66
2021/06/24 05:47:58;;;;;;;30.52;8.40;;;;;;;;;;4934093;29;20071;-67
2021/06/24 05:50:25;;;;;;;32.13;8.73;;;;;;;;;;4933621;29;20506;-65
2021/06/24 05:52:53;;;;;;;32.28;9.55;;;;;;;;;;4933987;29;20593;-66
2021/06/24 05:55:20;;;;;;;26.55;8.95;;;;;;;;;;4933495;29;20026;-68
2021/06/24 05:57:46;;;;;;;28.75;8.88;;;;;;;;;;4917404;29;20423;-69
2021/06/24 06:00:13;;;;;;;34.50;9.43;;;;;;;;;;4933711;29;20051;-69
2021/06/24 06:02:40;;;;;;;30.13;8.70;;;;;;;;;;4934103;29;20480;-69
2021/06/24 06:05:07;;;;;;;34.13;9.30;;;;;;;;;;4934342;29;20028;-69
2021/06/24 06:07:33;;;;;;;28.27;9.30;;;;;;;;;;4933974;29;20403;-69
2021/06/24 06:09:59;;;;;;;33.15;9.38;;;;;;;;;;4934088;29;20051;-70
2021/06/24 06:12:27;;;;;;;34.08;9.55;;;;;;;;;;4933974;29;20031;-70
2021/06/24 06:14:53;;;;;;;30.77;9.73;;;;;;;;;;4933973;29;20078;-67
2021/06/24 06:17:19;;;;;;;34.80;9.40;;;;;;;;;;4933771;29;20051;-68
2021/06/24 06:19:45;;;;;;;31.10;10.05;;;;;;;;;;4934088;29;20028;-69
2021/06/24 06:22:11;;;;;;;27.30;9.63;;;;;;;;;;4916662;29;20035;-71
2021/06/24 06:24:39;;;;;;;35.47;10.50;;;;;;;;;;4933319;29;20106;-71
2021/06/24 06:27:05;;;;;;;41.13;11.48;;;;;;;;;;4932991;29;20106;-68
2021/06/24 06:29:31;;;;;;;28.88;10.82;;;;;;;;;;4933946;29;20028;-70
2021/06/24 06:31:57;;;;;;;27.48;9.93;;;;;;;;;;4933905;29;20102;-69
2021/06/24 06:34:23;;;;;;;31.55;9.93;;;;;;;;;;4932388;29;20494;-70
2021/06/24 06:36:49;;;;;;;33.33;11.15;;;;;;;;;;4932645;29;20062;-68
2021/06/24 06:39:15;;;;;;;31.83;11.35;;;;;;;;;;4932307;29;20048;-70
2021/06/24 06:41:42;;;;;;;37.10;11.18;;;;;;;;;;4932996;29;20028;-69
2021/06/24 06:44:08;;;;;;;36.72;11.77;;;;;;;;;;4938679;29;20020;-71
2021/06/24 06:46:34;;;;;;;35.28;11.38;;;;;;;;;;4951309;29;20113;-71
2021/06/24 06:49:00;;;;;;;32.33;9.98;;;;;;;;;;4951244;29;20363;-67
2021/06/24 06:51:26;;;;;;;29.40;10.45;;;;;;;;;;4950937;28;20098;-66
2021/06/24 06:53:52;;;;;;;34.38;10.35;;;;;;;;;;4951200;28;20020;-66
2021/06/24 06:56:19;;;;;;;31.50;10.05;;;;;;;;;;4948628;29;20028;-66
2021/06/24 06:58:45;;;;;;;39.15;11.07;;;;;;;;;;4951508;29;20459;-69
2021/06/24 07:01:11;;;;;;;33.08;10.63;;;;;;;;;;4951505;29;20103;-65
2021/06/24 07:03:37;;;;;;;32.05;11.25;;;;;;;;;;4951510;29;20485;-68
2021/06/24 07:06:03;;;;;;;32.40;10.15;;;;;;;;;;4951801;29;20800;-68
2021/06/24 07:08:29;;;;;;;29.45;11.13;;;;;;;;;;4952013;29;20031;-68
2021/06/24 07:10:55;;;;;;;27.45;10.57;;;;;;;;;;4951073;29;20028;-68
2021/06/24 07:13:21;;;;;;;28.60;10.73;;;;;;;;;;4951756;29;20019;-68
2021/06/24 07:15:50;;;;;;;30.17;11.10;;;;;;;;;;4951796;29;20074;-68
2021/06/24 07:18:16;;;;;;;30.25;10.27;;;;;;;;;;4952176;29;20106;-68
2021/06/24 07:20:42;;;;;;;36.30;11.27;;;;;;;;;;4952495;29;20061;-69
2021/06/24 07:23:09;;;;;;;35.35;10.52;;;;;;;;;;4934474;29;20387;-70
2021/06/24 07:25:35;;;;;;;36.25;10.77;;;;;;;;;;4951828;29;20479;-70
2021/06/24 07:28:01;;;;;;;30.38;10.85;;;;;;;;;;4951729;29;20042;-68
2021/06/24 07:30:27;;;;;;;34.25;10.68;;;;;;;;;;4952490;29;20070;-68
2021/06/24 07:32:53;;;;;;;36.35;12.45;;;;;;;;;;4951946;29;20525;-67
2021/06/24 07:35:19;;;;;;;30.50;11.25;;;;;;;;;;4950302;29;20055;-70
2021/06/24 07:37:46;;;;;;;33.10;11.23;;;;;;;;;;4950824;28;20075;-67
2021/06/24 07:40:12;;;;;;;31.50;10.85;;;;;;;;;;4952538;28;20490;-70
2021/06/24 07:42:38;;;;;;;31.60;11.25;;;;;;;;;;4952004;29;20023;-75
2021/06/24 07:45:05;;;;;;;32.10;12.40;;;;;;;;;;4951823;29;20062;-73
2021/06/24 07:47:31;;;;;;;33.40;11.02;;;;;;;;;;4951144;29;20664;-71
2021/06/24 07:49:57;;;;;;;27.63;10.63;;;;;;;;;;4951028;29;20019;-76
2021/06/24 07:52:23;;;;;;;32.90;11.02;;;;;;;;;;4951529;29;20024;-69
2021/06/24 07:54:49;;;;;;;35.90;11.15;;;;;;;;;;4951523;29;20065;-73
2021/06/24 07:57:15;;;;;;;31.05;10.18;;;;;;;;;;4951798;29;20050;-69
2021/06/24 07:59:41;;;;;;;36.42;10.80;;;;;;;;;;4950948;28;20140;-70
2021/06/24 08:02:07;;;;;;;36.22;11.63;;;;;;;;;;4951829;28;20502;-70
2021/06/24 08:04:34;;;;;;;43.13;10.77;;;;;;;;;;4954578;29;20110;-69
2021/06/24 08:07:00;;;;;;;29.70;11.50;;;;;;;;;;4954996;29;20032;-71
2021/06/24 08:09:26;;;;;;;36.65;10.77;;;;;;;;;;4954935;29;20028;-78
2021/06/24 08:11:52;;;;;;;34.30;10.75;;;;;;;;;;4955077;29;20479;-72
2021/06/24 08:14:18;;;;;;;31.85;10.38;;;;;;;;;;4955158;29;20031;-71
2021/06/24 08:16:45;;;;;;;28.40;9.32;;;;;;;;;;4955188;29;20040;-72
2021/06/24 08:19:11;;;;;;;30.38;10.10;;;;;;;;;;4937233;29;20057;-69
2021/06/24 08:21:37;;;;;;;28.88;10.02;;;;;;;;;;4955008;29;20499;-69
2021/06/24 08:24:03;;;;;;;30.70;9.50;;;;;;;;;;4954382;29;20078;-71
2021/06/24 08:26:29;;;;;;;29.73;9.98;;;;;;;;;;4954233;29;20031;-68
2021/06/24 08:28:56;;;;;;;24.27;9.55;;;;;;;;;;4955024;29;20472;-71
2021/06/24 08:31:22;;;;;;;31.42;10.10;;;;;;;;;;4954865;29;20042;-68
2021/06/24 08:33:48;;;;;;;37.88;11.32;;;;;;;;;;4954639;29;20046;-66
2021/06/24 08:36:14;;;;;;;32.95;9.73;;;;;;;;;;4954258;29;20162;-68
2021/06/24 08:38:40;;;;;;;27.33;10.32;;;;;;;;;;4954343;29;20023;-67
2021/06/24 08:41:06;;;;;;;38.15;11.57;;;;;;;;;;4954618;29;20059;-69
2021/06/24 08:43:33;;;;;;;33.63;11.60;;;;;;;;;;4954544;29;20479;-66
2021/06/24 08:46:02;;;;;;;30.58;10.45;;;;;;;;;;4949454;29;20061;-69
2021/06/24 08:48:32;;;;;;;31.98;9.57;;;;;;;;;;4952850;29;20083;-69
2021/06/24 08:50:58;;;;;;;33.28;9.52;;;;;;;;;;4954001;29;20027;-69
2021/06/24 08:53:24;;;;;;;30.67;10.25;;;;;;;;;;4935077;29;20079;-70
2021/06/24 08:55:53;;;;;;;32.03;11.40;;;;;;;;;;4954212;29;20047;-69
2021/06/24 08:58:19;;;;;;;31.83;11.02;;;;;;;;;;4952123;29;20054;-71
2021/06/24 09:00:46;;;;;;;30.55;10.77;;;;;;;;;;4953616;29;20030;-68
2021/06/24 09:03:19;;;;;;;29.75;11.07;;;;;;;;;;4954245;29;20034;-69
2021/06/24 09:05:55;;;;;;;37.92;11.50;;;;;;;;;;4953607;29;20045;-69
2021/06/24 09:08:37;;;;;;;31.08;11.18;;;;;;;;;;4953100;29;20043;-68
2021/06/24 09:11:18;;;;;;;32.28;11.30;;;;;;;;;;4953656;29;20086;-69
2021/06/24 09:13:45;;;;;;;34.17;11.05;;;;;;;;;;4953731;28;20031;-69
2021/06/24 09:16:24;;;;;;;28.17;9.52;;;;;;;;;;4953753;29;20074;-67
2021/06/24 09:18:51;;;;;;;31.60;11.38;;;;;;;;;;4953787;29;20042;-67
2021/06/24 09:21:20;;;;;;;27.42;9.93;;;;;;;;;;4953336;29;20023;-69
2021/06/24 09:23:48;;;;;;;33.45;9.73;;;;;;;;;;4953455;29;20114;-68
2021/06/24 09:26:15;;;;;;;33.45;10.82;;;;;;;;;;4953410;29;20042;-68
2021/06/24 09:28:47;;;;;;;29.17;9.65;;;;;;;;;;4954004;29;20417;-69
2021/06/24 09:31:22;;;;;;;31.88;10.43;;;;;;;;;;4953494;29;20035;-68
2021/06/24 09:33:48;;;;;;;34.00;10.63;;;;;;;;;;4953269;29;20069;-68
2021/06/24 09:36:31;;;;;;;25.25;8.82;;;;;;;;;;4953398;29;20051;-69
2021/06/24 09:38:57;;;;;;;33.00;9.15;;;;;;;;;;4953181;29;20047;-70
2021/06/24 09:41:23;;;;;;;32.13;9.38;;;;;;;;;;4953645;29;20094;-70
2021/06/24 09:43:49;;;;;;;37.25;9.32;;;;;;;;;;4953267;29;20102;-68
2021/06/24 09:46:19;;;;;;;28.70;9.20;;;;;;;;;;4953449;29;20487;-69
2021/06/24 09:48:46;;;;;;;28.83;9.27;;;;;;;;;;4953404;29;20744;-68
2021/06/24 09:51:17;;;;;;;27.05;9.55;;;;;;;;;;4953302;29;20027;-68
2021/06/24 09:53:51;;;;;;;33.00;9.45;;;;;;;;;;4953239;29;20087;-69
2021/06/24 09:56:25;;;;;;;35.35;9.80;;;;;;;;;;4952631;29;20604;-68
2021/06/24 09:58:51;;;;;;;27.02;9.27;;;;;;;;;;4952804;29;20023;-69
2021/06/24 10:01:46;;;;;;;29.42;8.93;;;;;;;;;;4952953;29;20031;-69
2021/06/24 10:04:21;;;;;;;27.35;9.85;;;;;;;;;;4855999;29;20041;-70
2021/06/24 10:06:48;;;;;;;29.52;8.77;;;;;;;;;;4856564;29;20471;-70
2021/06/24 10:09:14;;;;;;;28.40;8.20;;;;;;;;;;4855745;29;20045;-69
2021/06/24 10:11:40;;;;;;;30.83;8.55;;;;;;;;;;4856404;29;20033;-69
2021/06/24 10:14:11;;;;;;;34.70;8.40;;;;;;;;;;4856269;29;20038;-69
2021/06/24 10:16:37;;;;;;;28.90;8.63;;;;;;;;;;4855539;29;20959;-69
2021/06/24 10:19:04;;;;;;;25.63;7.78;;;;;;;;;;4855504;29;20029;-68
2021/06/24 10:21:32;;;;;;;29.80;7.15;;;;;;;;;;4856096;29;20132;-68
2021/06/24 10:24:03;;;;;;;31.90;8.18;;;;;;;;;;4856480;29;20093;-68
2021/06/24 10:26:31;;;;;;;25.77;7.05;;;;;;;;;;4856102;29;20068;-68
2021/06/24 10:29:13;;;;;;;32.20;8.65;;;;;;;;;;4856004;29;20082;-68
2021/06/24 10:31:43;;;;;;;27.90;7.68;;;;;;;;;;4856567;29;20581;-68
2021/06/24 10:34:09;;;;;;;31.27;7.80;;;;;;;;;;4856302;29;20037;-68
2021/06/24 10:36:36;;;;;;;29.17;7.70;;;;;;;;;;4856028;29;20129;-68
2021/06/24 10:39:03;;;;;;;34.13;7.45;;;;;;;;;;4855793;29;20038;-68
2021/06/24 10:42:02;;;;;;;34.33;7.90;;;;;;;;;;4940399;29;20043;-68
2021/06/24 10:44:43;;;;;;;35.35;8.00;;;;;;;;;;4953014;29;20031;-69
2021/06/24 10:47:09;;;;;;;39.45;7.57;;;;;;;;;;4935531;29;20023;-70
2021/06/24 10:49:36;;;;;;;34.33;8.05;;;;;;;;;;4951762;29;20038;-70
2021/06/24 10:52:37;;;;;;;29.73;8.20;;;;;;;;;;4951462;29;20073;-69
2021/06/24 10:55:04;;;;;;;33.35;7.53;;;;;;;;;;4855367;29;20481;-69
2021/06/24 10:57:40;;;;;;;32.30;7.93;;;;;;;;;;4855225;29;20049;-69
2021/06/24 11:00:25;;;;;;;31.20;7.32;;;;;;;;;;4856002;29;20470;-68
2021/06/24 11:02:51;;;;;;;29.50;7.38;;;;;;;;;;4856091;29;20046;-69
2021/06/24 11:05:21;;;;;;;34.90;7.82;;;;;;;;;;4855320;29;20030;-67
2021/06/24 11:07:49;;;;;;;34.85;7.78;;;;;;;;;;4848246;29;20765;-67
2021/06/24 11:10:18;;;;;;;35.78;8.50;;;;;;;;;;4845105;29;20463;-71
2021/06/24 11:12:51;;;;;;;29.23;6.85;;;;;;;;;;4844549;29;20268;-66
2021/06/24 11:15:36;;;;;;;30.30;7.63;;;;;;;;;;4844600;29;20041;-68
2021/06/24 11:18:02;;;;;;;39.35;8.45;;;;;;;;;;4853927;29;20926;-74
2021/06/24 11:20:42;;;;;;;35.05;7.72;;;;;;;;;;4854153;29;20029;-66
2021/06/24 11:23:28;;;;;;;37.00;8.25;;;;;;;;;;4854965;29;20128;-67
2021/06/24 11:26:06;;;;;;;33.47;7.80;;;;;;;;;;4855468;29;20037;-69
2021/06/24 11:28:53;;;;;;;40.92;8.35;;;;;;;;;;4884324;29;20066;-67
2021/06/24 11:31:22;;;;;;;35.28;8.32;;;;;;;;;;4951963;29;20027;-75
2021/06/24 11:34:01;;;;;;;27.17;7.40;;;;;;;;;;4951632;29;20140;-67
2021/06/24 11:36:28;;;;;;;36.33;7.60;;;;;;;;;;4951487;29;20254;-73
2021/06/24 11:38:54;;;;;;;30.58;7.78;;;;;;;;;;4936536;29;20034;-74
2021/06/24 11:41:21;;;;;;;43.88;7.50;;;;;;;;;;4956066;29;20023;-65
2021/06/24 11:43:57;;;;;;;35.35;8.10;;;;;;;;;;4955509;29;20027;-76
2021/06/24 11:46:24;;;;;;;33.05;8.10;;;;;;;;;;4955301;29;20040;-68
2021/06/24 12:03:07;;;;;;;36.92;7.95;;;;;;;;;;4955462;29;20402;-66
2021/06/24 12:05:36;;;;;;;36.38;7.82;;;;;;;;;;4954843;29;20041;-67
2021/06/24 12:08:02;;;;;;;39.58;8.05;;;;;;;;;;4955366;29;20019;-65
2021/06/24 12:10:28;;;;;;;35.78;8.25;;;;;;;;;;4937828;29;20134;-68
2021/06/24 12:12:54;;;;;;;39.95;8.95;;;;;;;;;;4955032;29;20039;-75
2021/06/24 12:15:21;;;;;;;40.60;8.18;;;;;;;;;;4954999;29;20031;-68
2021/06/24 12:17:47;;;;;;;35.60;8.73;;;;;;;;;;4955389;29;20033;-74
2021/06/24 12:20:20;;;;;;;36.38;7.93;;;;;;;;;;4955068;29;20033;-72
2021/06/24 12:22:52;;;;;;;41.50;8.65;;;;;;;;;;4951585;29;20023;-69
2021/06/24 12:25:22;;;;;;;33.47;7.63;;;;;;;;;;4952906;29;20531;-70
2021/06/24 12:27:48;;;;;;;45.72;8.60;;;;;;;;;;4954688;29;20031;-68
2021/06/24 12:30:16;;;;;;;32.47;8.63;;;;;;;;;;4954934;29;20027;-75
2021/06/24 12:32:49;;;;;;;43.10;8.38;;;;;;;;;;4955157;29;20034;-66
2021/06/24 12:35:35;;;;;;;46.70;9.30;;;;;;;;;;4954545;29;20027;-66
2021/06/24 12:38:03;;;;;;;38.95;10.23;;;;;;;;;;4954023;29;20070;-70
2021/06/24 12:40:33;;;;;;;43.50;9.63;;;;;;;;;;4954734;29;20065;-77
2021/06/24 12:43:00;;;;;;;31.05;8.07;;;;;;;;;;4954318;29;20483;-75
2021/06/24 12:45:28;;;;;;;49.38;8.65;;;;;;;;;;4954940;29;20114;-66
2021/06/24 12:47:55;;;;;;;42.28;7.88;;;;;;;;;;4954523;29;20503;-67
2021/06/24 12:50:21;;;;;;;37.00;7.55;;;;;;;;;;4954338;28;20038;-74
2021/06/24 12:52:50;;;;;;;40.55;8.43;;;;;;;;;;4954588;29;20152;-65
2021/06/24 12:55:36;;;;;;;35.75;8.05;;;;;;;;;;4954521;29;20110;-73
2021/06/24 12:58:03;;;;;;;42.67;7.57;;;;;;;;;;4953913;29;20550;-66
2021/06/24 13:00:29;;;;;;;34.45;8.45;;;;;;;;;;4952605;29;20152;-65
2021/06/24 13:02:55;;;;;;;35.47;8.20;;;;;;;;;;4954156;29;20043;-65
2021/06/24 13:05:24;;;;;;;41.10;8.00;;;;;;;;;;4935984;29;20411;-64
2021/06/24 13:08:04;;;;;;;37.03;9.80;;;;;;;;;;4953708;29;20062;-66
2021/06/24 13:10:30;;;;;;;37.95;9.10;;;;;;;;;;4953538;29;20047;-67
2021/06/24 13:12:56;;;;;;;39.63;8.13;;;;;;;;;;4953528;29;20707;-66
2021/06/24 13:15:29;;;;;;;37.03;7.63;;;;;;;;;;4953971;29;20391;-66
2021/06/24 13:17:56;;;;;;;45.13;7.85;;;;;;;;;;4953215;29;20053;-68
2021/06/24 13:20:22;;;;;;;45.40;8.75;;;;;;;;;;4953854;29;20035;-67
2021/06/24 13:22:48;;;;;;;38.42;7.43;;;;;;;;;;4953812;29;20086;-66
2021/06/24 13:25:21;;;;;;;42.97;8.98;;;;;;;;;;4953911;29;20455;-67
2021/06/24 13:27:48;;;;;;;42.20;8.10;;;;;;;;;;4954208;29;20442;-66
2021/06/24 13:30:15;;;;;;;38.25;7.80;;;;;;;;;;4953492;29;20030;-65
2021/06/24 13:32:46;;;;;;;46.13;9.00;;;;;;;;;;4953464;29;20027;-74
2021/06/24 13:35:26;;;;;;;38.95;7.68;;;;;;;;;;4951864;29;20023;-69
2021/06/24 13:37:55;;;;;;;40.45;9.35;;;;;;;;;;4953565;29;20123;-72
2021/06/24 13:40:24;;;;;;;38.30;8.05;;;;;;;;;;4953298;29;20031;-68
2021/06/24 13:42:51;;;;;;;42.95;8.73;;;;;;;;;;4953581;29;20059;-66
2021/06/24 13:45:17;;;;;;;38.30;8.35;;;;;;;;;;4953279;29;20466;-68
2021/06/24 13:47:43;;;;;;;41.72;8.57;;;;;;;;;;4952457;29;20050;-66
2021/06/24 13:50:09;;;;;;;36.50;8.15;;;;;;;;;;4949049;29;20069;-65
2021/06/24 13:52:35;;;;;;;39.28;7.97;;;;;;;;;;4951604;29;20067;-66
2021/06/24 13:55:02;;;;;;;41.80;8.50;;;;;;;;;;4950845;29;20027;-66
2021/06/24 13:57:28;;;;;;;41.92;8.30;;;;;;;;;;4951595;29;20527;-67
2021/06/24 13:59:54;;;;;;;39.17;9.00;;;;;;;;;;4952482;28;20028;-68
2021/06/24 14:02:20;;;;;;;34.42;7.22;;;;;;;;;;4951598;29;20098;-71
2021/06/24 14:04:46;;;;;;;45.63;8.35;;;;;;;;;;4952560;29;20038;-64
2021/06/24 14:07:13;;;;;;;37.70;8.00;;;;;;;;;;4952479;29;20506;-67
2021/06/24 14:09:40;;;;;;;42.83;7.78;;;;;;;;;;4952242;29;20035;-67
2021/06/24 14:12:06;;;;;;;45.40;9.20;;;;;;;;;;4952257;29;20030;-67
2021/06/24 14:14:32;;;;;;;40.47;8.55;;;;;;;;;;4952263;29;20031;-68
2021/06/24 14:16:58;;;;;;;43.83;9.40;;;;;;;;;;4951920;29;20046;-68
2021/06/24 14:19:28;;;;;;;44.03;8.55;;;;;;;;;;4951237;29;20495;-68
2021/06/24 14:21:58;;;;;;;41.20;7.95;;;;;;;;;;4949131;29;20039;-68
2021/06/24 14:24:25;;;;;;;41.17;8.40;;;;;;;;;;4951260;29;20164;-66
2021/06/24 14:26:55;;;;;;;37.92;7.45;;;;;;;;;;4951618;29;20082;-69
2021/06/24 14:29:21;;;;;;;42.50;8.93;;;;;;;;;;4951807;29;20122;-69
2021/06/24 14:31:47;;;;;;;42.00;8.18;;;;;;;;;;4951793;29;20591;-69
2021/06/24 14:34:14;;;;;;;37.15;8.75;;;;;;;;;;4952076;29;20027;-72
2021/06/24 14:36:40;;;;;;;44.20;9.52;;;;;;;;;;4951813;29;20073;-67
2021/06/24 14:39:08;;;;;;;34.63;7.35;;;;;;;;;;4951896;29;20563;-71
2021/06/24 14:41:34;;;;;;;39.03;8.45;;;;;;;;;;4952229;29;20039;-69
2021/06/24 14:44:00;;;;;;;38.42;8.05;;;;;;;;;;4951582;29;20422;-74
2021/06/24 14:46:27;;;;;;;40.45;7.90;;;;;;;;;;4947181;29;20047;-70
2021/06/24 14:48:53;;;;;;;36.60;8.05;;;;;;;;;;4949883;29;20095;-71
2021/06/24 14:51:20;;;;;;;35.00;8.05;;;;;;;;;;4952543;29;20031;-67
2021/06/24 14:53:46;;;;;;;42.15;8.40;;;;;;;;;;4952443;29;20034;-68
2021/06/24 14:56:15;;;;;;;49.55;8.95;;;;;;;;;;4952636;29;20090;-69
2021/06/24 14:58:41;;;;;;;45.50;9.10;;;;;;;;;;4952691;29;20364;-69
2021/06/24 15:01:07;;;;;;;36.95;8.35;;;;;;;;;;4952072;29;20360;-69
2021/06/24 15:03:33;;;;;;;40.08;8.38;;;;;;;;;;4952389;29;20027;-67
2021/06/24 15:05:59;;;;;;;36.78;8.35;;;;;;;;;;4951053;29;20027;-66
2021/06/24 15:08:25;;;;;;;42.08;8.80;;;;;;;;;;4951394;29;20027;-71
2021/06/24 15:10:52;;;;;;;42.47;9.85;;;;;;;;;;4952852;29;20074;-70
2021/06/24 15:13:18;;;;;;;37.75;8.85;;;;;;;;;;4955580;28;20027;-71
2021/06/24 15:15:44;;;;;;;42.78;9.23;;;;;;;;;;4956278;29;20098;-70
2021/06/24 15:18:10;;;;;;;44.33;9.27;;;;;;;;;;4955756;29;20067;-68
2021/06/24 15:20:37;;;;;;;44.75;8.95;;;;;;;;;;4956543;29;20023;-70
2021/06/24 15:23:03;;;;;;;47.40;9.38;;;;;;;;;;4956600;29;20148;-68
2021/06/24 15:25:29;;;;;;;41.22;8.57;;;;;;;;;;4955933;29;20045;-67
2021/06/24 15:27:57;;;;;;;44.38;8.30;;;;;;;;;;4956219;29;20039;-69
2021/06/24 15:30:24;;;;;;;31.27;8.57;;;;;;;;;;4956088;29;20034;-67
2021/06/24 15:32:51;;;;;;;39.70;9.40;;;;;;;;;;4956126;29;20031;-66
2021/06/24 15:35:17;;;;;;;38.58;9.85;;;;;;;;;;4955796;29;20023;-67
2021/06/24 15:37:45;;;;;;;42.92;9.80;;;;;;;;;;4955906;29;20047;-68
2021/06/24 15:40:11;;;;;;;39.90;9.85;;;;;;;;;;4956151;29;20063;-67
2021/06/24 15:42:38;;;;;;;48.92;9.57;;;;;;;;;;4956185;29;20114;-68
2021/06/24 15:45:06;;;;;;;36.08;9.32;;;;;;;;;;4956018;29;20190;-66
2021/06/24 15:47:32;;;;;;;46.80;9.48;;;;;;;;;;4956288;29;20036;-68
2021/06/24 15:49:58;;;;;;;40.40;9.07;;;;;;;;;;4955773;29;20106;-65
2021/06/24 15:52:24;;;;;;;44.78;8.68;;;;;;;;;;4955500;29;20106;-66
2021/06/24 15:54:50;;;;;;;40.65;9.63;;;;;;;;;;4955947;29;20194;-67
2021/06/24 15:57:17;;;;;;;50.67;9.15;;;;;;;;;;4955655;29;20042;-67
2021/06/24 15:59:43;;;;;;;47.97;9.48;;;;;;;;;;4956004;29;20031;-67
2021/06/24 16:02:09;;;;;;;48.08;9.00;;;;;;;;;;4956142;29;20035;-67
2021/06/24 16:04:36;;;;;;;38.33;8.90;;;;;;;;;;4955909;29;20113;-67
2021/06/24 16:07:03;;;;;;;44.63;9.45;;;;;;;;;;4956129;29;20034;-68
2021/06/24 16:09:30;;;;;;;36.40;8.80;;;;;;;;;;4954766;29;20035;-72
2021/06/24 16:11:59;;;;;;;32.65;8.15;;;;;;;;;;4955783;29;20035;-67
2021/06/24 16:14:27;;;;;;;41.10;9.30;;;;;;;;;;4955576;29;20055;-68
2021/06/24 16:16:53;;;;;;;42.17;10.50;;;;;;;;;;4955691;29;20074;-67
2021/06/24 16:19:19;;;;;;;40.42;10.73;;;;;;;;;;4955084;29;20475;-66
2021/06/24 16:21:45;;;;;;;40.38;10.10;;;;;;;;;;4955290;29;20499;-68
2021/06/24 16:24:16;;;;;;;38.63;8.98;;;;;;;;;;4946517;28;20024;-71
2021/06/24 16:26:42;;;;;;;42.22;9.65;;;;;;;;;;4935291;29;20118;-68
2021/06/24 16:29:09;;;;;;;41.88;9.07;;;;;;;;;;4935424;29;20024;-67
2021/06/24 16:31:35;;;;;;;42.58;9.60;;;;;;;;;;4949080;29;20569;-68
2021/06/24 16:34:01;;;;;;;44.60;10.40;;;;;;;;;;4954809;29;20038;-72
2021/06/24 16:36:28;;;;;;;44.72;11.13;;;;;;;;;;4954773;29;20565;-68
2021/06/24 16:38:54;;;;;;;52.00;11.07;;;;;;;;;;4954884;29;20039;-66
2021/06/24 16:41:20;;;;;;;36.80;9.73;;;;;;;;;;4955601;29;20110;-65
2021/06/24 16:43:46;;;;;;;39.80;10.05;;;;;;;;;;4955380;29;20386;-67
2021/06/24 16:46:12;;;;;;;39.30;10.27;;;;;;;;;;4955283;29;20535;-67
2021/06/24 16:48:38;;;;;;;38.80;9.65;;;;;;;;;;4955216;29;20781;-66
2021/06/24 16:51:05;;;;;;;39.70;8.95;;;;;;;;;;4953959;29;20478;-65
2021/06/24 16:53:31;;;;;;;39.88;10.40;;;;;;;;;;4955208;29;20037;-65
2021/06/24 16:55:58;;;;;;;46.75;10.52;;;;;;;;;;4955219;29;20474;-66
2021/06/24 16:58:24;;;;;;;46.05;11.57;;;;;;;;;;4955627;29;20035;-66
2021/06/24 17:00:50;;;;;;;43.33;10.23;;;;;;;;;;4954952;29;20102;-66
2021/06/24 17:03:16;;;;;;;38.38;9.65;;;;;;;;;;4937388;29;20046;-65
2021/06/24 17:05:43;;;;;;;46.13;10.52;;;;;;;;;;4954166;29;20101;-66
2021/06/24 17:08:09;;;;;;;45.17;9.75;;;;;;;;;;4954230;29;20156;-66
2021/06/24 17:10:35;;;;;;;43.85;10.85;;;;;;;;;;4954124;29;20126;-66
2021/06/24 17:13:01;;;;;;;42.15;10.48;;;;;;;;;;4954663;29;20059;-66
2021/06/24 17:15:27;;;;;;;47.05;10.52;;;;;;;;;;4954555;29;20038;-75
2021/06/24 17:17:53;;;;;;;48.75;12.15;;;;;;;;;;4954385;29;20054;-70
2021/06/24 17:20:20;;;;;;;50.20;12.30;;;;;;;;;;4954504;29;20019;-67
2021/06/24 17:22:48;;;;;;;46.78;12.38;;;;;;;;;;4954630;29;20024;-69
2021/06/24 17:25:15;;;;;;;45.88;11.63;;;;;;;;;;4954043;29;20047;-68
2021/06/24 17:27:42;;;;;;;42.55;11.45;;;;;;;;;;4953974;29;20038;-67
2021/06/24 17:30:13;;;;;;;46.42;13.23;;;;;;;;;;4954166;29;20087;-66
2021/06/24 17:32:39;;;;;;;49.63;11.77;;;;;;;;;;4954160;29;20058;-65
2021/06/24 17:35:06;;;;;;;41.60;11.50;;;;;;;;;;4953446;28;20522;-70
2021/06/24 17:37:32;;;;;;;38.65;10.57;;;;;;;;;;4949709;29;20102;-70
2021/06/24 17:39:58;;;;;;;48.40;11.82;;;;;;;;;;4949844;29;20027;-66
2021/06/24 17:42:24;;;;;;;44.00;11.65;;;;;;;;;;4950737;29;20027;-70
2021/06/24 17:44:50;;;;;;;42.25;11.70;;;;;;;;;;4949674;29;20110;-73
2021/06/24 17:47:16;;;;;;;51.35;11.35;;;;;;;;;;4950614;29;20078;-75
2021/06/24 17:49:42;;;;;;;43.63;11.43;;;;;;;;;;4953806;29;20042;-67
2021/06/24 17:52:08;;;;;;;40.60;11.77;;;;;;;;;;4953942;29;20081;-68
2021/06/24 17:54:35;;;;;;;40.78;11.55;;;;;;;;;;4951205;29;20043;-72
2021/06/24 17:57:01;;;;;;;38.22;10.27;;;;;;;;;;4953594;29;20035;-67
2021/06/24 17:59:27;;;;;;;39.88;10.73;;;;;;;;;;4953943;29;20501;-71
2021/06/24 18:01:53;;;;;;;42.83;11.02;;;;;;;;;;4948392;29;20064;-66
2021/06/24 18:04:20;;;;;;;48.45;10.60;;;;;;;;;;4953703;29;20031;-67